sensor_id;sensor_type;location;lat;lon;timestamp;P1;durP1;ratioP1;P2;durP2;ratioP2
80313;SDS011;69628;47.516;18.828;2023-04-25T00:00:03;2.70;;;1.88;;
80313;SDS011;69628;47.516;18.828;2023-04-25T00:01:06;3.30;;;2.00;;
80313;SDS011;69628;47.516;18.828;2023-04-25T00:02:08;4.25;;;2.17;;
80313;SDS011;69628;47.516;18.828;2023-04-25T00:03:09;2.35;;;1.73;;
80313;SDS011;69628;47.516;18.828;2023-04-25T00:04:09;4.15;;;2.10;;
80313;SDS011;69628;47.516;18.828;2023-04-25T00:05:11;3.50;;;1.90;;
80313;SDS011;69628;47.516;18.828;2023-04-25T00:06:12;3.47;;;2.00;;
80313;SDS011;69628;47.516;18.828;2023-04-25T00:07:12;3.80;;;1.85;;
80313;SDS011;69628;47.516;18.828;2023-04-25T00:08:13;6.22;;;2.30;;
80313;SDS011;69628;47.516;18.828;2023-04-25T00:09:13;2.83;;;1.90;;
80313;SDS011;69628;47.516;18.828;2023-04-25T00:10:13;2.53;;;1.90;;
80313;SDS011;69628;47.516;18.828;2023-04-25T00:11:14;3.30;;;1.95;;
80313;SDS011;69628;47.516;18.828;2023-04-25T00:12:14;3.28;;;2.10;;
80313;SDS011;69628;47.516;18.828;2023-04-25T00:13:15;3.17;;;1.95;;
80313;SDS011;69628;47.516;18.828;2023-04-25T00:14:17;4.15;;;2.13;;
80313;SDS011;69628;47.516;18.828;2023-04-25T00:15:17;2.90;;;1.90;;
80313;SDS011;69628;47.516;18.828;2023-04-25T00:16:18;3.13;;;2.00;;
80313;SDS011;69628;47.516;18.828;2023-04-25T00:17:18;3.38;;;1.85;;
80313;SDS011;69628;47.516;18.828;2023-04-25T00:18:19;4.35;;;2.13;;
80313;SDS011;69628;47.516;18.828;2023-04-25T00:19:20;3.58;;;2.10;;
80313;SDS011;69628;47.516;18.828;2023-04-25T00:20:20;2.53;;;2.00;;
80313;SDS011;69628;47.516;18.828;2023-04-25T00:21:22;2.83;;;1.80;;
80313;SDS011;69628;47.516;18.828;2023-04-25T00:22:24;3.00;;;1.95;;
80313;SDS011;69628;47.516;18.828;2023-04-25T00:23:24;3.58;;;2.00;;
80313;SDS011;69628;47.516;18.828;2023-04-25T00:24:25;3.97;;;2.15;;
80313;SDS011;69628;47.516;18.828;2023-04-25T00:25:25;2.42;;;1.90;;
80313;SDS011;69628;47.516;18.828;2023-04-25T00:26:26;4.30;;;2.15;;
80313;SDS011;69628;47.516;18.828;2023-04-25T00:27:27;3.63;;;2.17;;
80313;SDS011;69628;47.516;18.828;2023-04-25T00:28:27;4.07;;;2.17;;
80313;SDS011;69628;47.516;18.828;2023-04-25T00:29:27;4.45;;;2.58;;
80313;SDS011;69628;47.516;18.828;2023-04-25T00:30:28;3.25;;;2.20;;
80313;SDS011;69628;47.516;18.828;2023-04-25T00:31:28;5.18;;;2.13;;
80313;SDS011;69628;47.516;18.828;2023-04-25T00:32:29;4.05;;;2.30;;
80313;SDS011;69628;47.516;18.828;2023-04-25T00:33:30;5.72;;;2.15;;
80313;SDS011;69628;47.516;18.828;2023-04-25T00:34:30;3.25;;;2.38;;
80313;SDS011;69628;47.516;18.828;2023-04-25T00:35:30;3.95;;;2.60;;
80313;SDS011;69628;47.516;18.828;2023-04-25T00:36:31;4.72;;;2.30;;
80313;SDS011;69628;47.516;18.828;2023-04-25T00:37:31;4.90;;;2.60;;
80313;SDS011;69628;47.516;18.828;2023-04-25T00:38:32;4.30;;;2.90;;
80313;SDS011;69628;47.516;18.828;2023-04-25T00:39:32;3.25;;;2.40;;
80313;SDS011;69628;47.516;18.828;2023-04-25T00:40:32;3.72;;;2.60;;
80313;SDS011;69628;47.516;18.828;2023-04-25T00:41:33;6.90;;;3.10;;
80313;SDS011;69628;47.516;18.828;2023-04-25T00:42:34;5.53;;;2.65;;
80313;SDS011;69628;47.516;18.828;2023-04-25T00:43:36;8.15;;;2.70;;
80313;SDS011;69628;47.516;18.828;2023-04-25T00:44:37;5.53;;;2.70;;
80313;SDS011;69628;47.516;18.828;2023-04-25T00:45:38;3.40;;;2.53;;
80313;SDS011;69628;47.516;18.828;2023-04-25T00:46:39;4.72;;;3.13;;
80313;SDS011;69628;47.516;18.828;2023-04-25T00:47:40;4.57;;;2.80;;
80313;SDS011;69628;47.516;18.828;2023-04-25T00:48:41;5.65;;;3.28;;
80313;SDS011;69628;47.516;18.828;2023-04-25T00:49:41;5.28;;;3.08;;
80313;SDS011;69628;47.516;18.828;2023-04-25T00:50:43;4.05;;;2.72;;
80313;SDS011;69628;47.516;18.828;2023-04-25T00:51:48;4.20;;;3.13;;
80313;SDS011;69628;47.516;18.828;2023-04-25T00:52:48;4.88;;;3.22;;
80313;SDS011;69628;47.516;18.828;2023-04-25T00:53:49;6.25;;;2.97;;
80313;SDS011;69628;47.516;18.828;2023-04-25T00:54:49;3.90;;;3.17;;
80313;SDS011;69628;47.516;18.828;2023-04-25T00:55:50;4.40;;;3.10;;
80313;SDS011;69628;47.516;18.828;2023-04-25T00:56:52;5.88;;;2.90;;
80313;SDS011;69628;47.516;18.828;2023-04-25T00:57:52;4.78;;;3.47;;
80313;SDS011;69628;47.516;18.828;2023-04-25T00:58:53;4.75;;;3.25;;
80313;SDS011;69628;47.516;18.828;2023-04-25T00:59:56;5.10;;;3.47;;
80313;SDS011;69628;47.516;18.828;2023-04-25T01:00:56;4.35;;;3.10;;
80313;SDS011;69628;47.516;18.828;2023-04-25T01:01:57;4.18;;;3.17;;
80313;SDS011;69628;47.516;18.828;2023-04-25T01:02:58;6.03;;;3.00;;
80313;SDS011;69628;47.516;18.828;2023-04-25T01:03:58;8.02;;;3.53;;
80313;SDS011;69628;47.516;18.828;2023-04-25T01:04:59;5.15;;;3.22;;
80313;SDS011;69628;47.516;18.828;2023-04-25T01:06:01;4.10;;;3.10;;
80313;SDS011;69628;47.516;18.828;2023-04-25T01:07:02;5.13;;;3.08;;
80313;SDS011;69628;47.516;18.828;2023-04-25T01:08:03;5.00;;;3.03;;
80313;SDS011;69628;47.516;18.828;2023-04-25T01:09:03;6.68;;;3.28;;
80313;SDS011;69628;47.516;18.828;2023-04-25T01:10:05;4.82;;;3.20;;
80313;SDS011;69628;47.516;18.828;2023-04-25T01:11:06;5.93;;;3.20;;
80313;SDS011;69628;47.516;18.828;2023-04-25T01:12:06;4.13;;;2.97;;
80313;SDS011;69628;47.516;18.828;2023-04-25T01:13:07;4.13;;;2.97;;
80313;SDS011;69628;47.516;18.828;2023-04-25T01:14:08;3.92;;;2.97;;
80313;SDS011;69628;47.516;18.828;2023-04-25T01:15:08;6.32;;;3.03;;
80313;SDS011;69628;47.516;18.828;2023-04-25T01:16:09;4.72;;;3.10;;
80313;SDS011;69628;47.516;18.828;2023-04-25T01:17:09;3.90;;;3.05;;
80313;SDS011;69628;47.516;18.828;2023-04-25T01:18:10;5.75;;;3.13;;
80313;SDS011;69628;47.516;18.828;2023-04-25T01:19:11;4.88;;;3.17;;
80313;SDS011;69628;47.516;18.828;2023-04-25T01:20:12;5.65;;;2.80;;
80313;SDS011;69628;47.516;18.828;2023-04-25T01:21:14;5.30;;;2.95;;
80313;SDS011;69628;47.516;18.828;2023-04-25T01:22:14;3.92;;;3.00;;
80313;SDS011;69628;47.516;18.828;2023-04-25T01:23:15;4.18;;;2.90;;
80313;SDS011;69628;47.516;18.828;2023-04-25T01:24:16;7.05;;;3.40;;
80313;SDS011;69628;47.516;18.828;2023-04-25T01:25:19;7.68;;;3.00;;
80313;SDS011;69628;47.516;18.828;2023-04-25T01:26:21;6.97;;;3.30;;
80313;SDS011;69628;47.516;18.828;2023-04-25T01:27:22;3.28;;;2.50;;
80313;SDS011;69628;47.516;18.828;2023-04-25T01:28:23;5.88;;;2.78;;
80313;SDS011;69628;47.516;18.828;2023-04-25T01:29:23;5.22;;;2.97;;
80313;SDS011;69628;47.516;18.828;2023-04-25T01:30:25;5.43;;;2.92;;
80313;SDS011;69628;47.516;18.828;2023-04-25T01:31:27;5.55;;;2.88;;
80313;SDS011;69628;47.516;18.828;2023-04-25T01:32:27;3.63;;;2.70;;
80313;SDS011;69628;47.516;18.828;2023-04-25T01:33:28;4.13;;;2.67;;
80313;SDS011;69628;47.516;18.828;2023-04-25T01:34:29;5.65;;;2.63;;
80313;SDS011;69628;47.516;18.828;2023-04-25T01:35:30;3.80;;;2.80;;
80313;SDS011;69628;47.516;18.828;2023-04-25T01:36:31;6.75;;;3.20;;
80313;SDS011;69628;47.516;18.828;2023-04-25T01:37:31;4.55;;;2.70;;
80313;SDS011;69628;47.516;18.828;2023-04-25T01:38:32;5.30;;;2.80;;
80313;SDS011;69628;47.516;18.828;2023-04-25T01:39:32;3.60;;;2.60;;
80313;SDS011;69628;47.516;18.828;2023-04-25T01:40:33;4.82;;;3.00;;
80313;SDS011;69628;47.516;18.828;2023-04-25T01:41:34;5.15;;;3.13;;
80313;SDS011;69628;47.516;18.828;2023-04-25T01:42:35;5.05;;;3.22;;
80313;SDS011;69628;47.516;18.828;2023-04-25T01:43:37;7.00;;;3.40;;
80313;SDS011;69628;47.516;18.828;2023-04-25T01:44:37;6.50;;;3.25;;
80313;SDS011;69628;47.516;18.828;2023-04-25T01:45:38;5.13;;;2.83;;
80313;SDS011;69628;47.516;18.828;2023-04-25T01:46:42;5.50;;;2.97;;
80313;SDS011;69628;47.516;18.828;2023-04-25T01:47:42;4.88;;;3.00;;
80313;SDS011;69628;47.516;18.828;2023-04-25T01:48:43;5.93;;;2.80;;
80313;SDS011;69628;47.516;18.828;2023-04-25T01:49:44;4.45;;;3.00;;
80313;SDS011;69628;47.516;18.828;2023-04-25T01:50:44;5.88;;;2.80;;
80313;SDS011;69628;47.516;18.828;2023-04-25T01:51:45;5.38;;;2.72;;
80313;SDS011;69628;47.516;18.828;2023-04-25T01:52:46;6.25;;;2.80;;
80313;SDS011;69628;47.516;18.828;2023-04-25T01:53:46;3.33;;;2.63;;
80313;SDS011;69628;47.516;18.828;2023-04-25T01:54:46;4.95;;;2.95;;
80313;SDS011;69628;47.516;18.828;2023-04-25T01:55:47;3.80;;;2.90;;
80313;SDS011;69628;47.516;18.828;2023-04-25T01:56:51;4.85;;;3.10;;
80313;SDS011;69628;47.516;18.828;2023-04-25T01:57:51;5.53;;;3.25;;
80313;SDS011;69628;47.516;18.828;2023-04-25T01:58:52;3.97;;;2.85;;
80313;SDS011;69628;47.516;18.828;2023-04-25T01:59:54;5.53;;;3.03;;
80313;SDS011;69628;47.516;18.828;2023-04-25T02:00:58;5.55;;;3.30;;
80313;SDS011;69628;47.516;18.828;2023-04-25T02:01:59;5.28;;;3.10;;
80313;SDS011;69628;47.516;18.828;2023-04-25T02:02:59;4.65;;;3.00;;
80313;SDS011;69628;47.516;18.828;2023-04-25T02:04:00;7.05;;;3.13;;
80313;SDS011;69628;47.516;18.828;2023-04-25T02:05:00;5.50;;;2.85;;
80313;SDS011;69628;47.516;18.828;2023-04-25T02:06:01;4.07;;;3.00;;
80313;SDS011;69628;47.516;18.828;2023-04-25T02:07:01;7.72;;;2.92;;
80313;SDS011;69628;47.516;18.828;2023-04-25T02:08:06;5.32;;;3.20;;
80313;SDS011;69628;47.516;18.828;2023-04-25T02:09:07;5.82;;;2.90;;
80313;SDS011;69628;47.516;18.828;2023-04-25T02:10:08;7.07;;;3.10;;
80313;SDS011;69628;47.516;18.828;2023-04-25T02:11:09;5.38;;;3.05;;
80313;SDS011;69628;47.516;18.828;2023-04-25T02:12:09;3.97;;;2.90;;
80313;SDS011;69628;47.516;18.828;2023-04-25T02:13:10;5.63;;;3.10;;
80313;SDS011;69628;47.516;18.828;2023-04-25T02:14:10;5.63;;;3.17;;
80313;SDS011;69628;47.516;18.828;2023-04-25T02:15:11;4.13;;;2.85;;
80313;SDS011;69628;47.516;18.828;2023-04-25T02:16:11;9.32;;;3.13;;
80313;SDS011;69628;47.516;18.828;2023-04-25T02:17:11;6.60;;;2.97;;
80313;SDS011;69628;47.516;18.828;2023-04-25T02:18:12;5.72;;;2.97;;
80313;SDS011;69628;47.516;18.828;2023-04-25T02:19:13;5.70;;;3.20;;
80313;SDS011;69628;47.516;18.828;2023-04-25T02:20:13;4.03;;;2.88;;
80313;SDS011;69628;47.516;18.828;2023-04-25T02:21:13;6.88;;;3.10;;
80313;SDS011;69628;47.516;18.828;2023-04-25T02:22:14;4.30;;;2.83;;
80313;SDS011;69628;47.516;18.828;2023-04-25T02:23:14;6.03;;;3.30;;
80313;SDS011;69628;47.516;18.828;2023-04-25T02:24:19;5.47;;;3.20;;
80313;SDS011;69628;47.516;18.828;2023-04-25T02:25:19;5.30;;;2.97;;
80313;SDS011;69628;47.516;18.828;2023-04-25T02:26:20;4.43;;;3.00;;
80313;SDS011;69628;47.516;18.828;2023-04-25T02:27:23;3.53;;;2.78;;
80313;SDS011;69628;47.516;18.828;2023-04-25T02:28:24;4.00;;;2.65;;
80313;SDS011;69628;47.516;18.828;2023-04-25T02:29:25;6.22;;;2.97;;
80313;SDS011;69628;47.516;18.828;2023-04-25T02:30:26;4.18;;;2.67;;
80313;SDS011;69628;47.516;18.828;2023-04-25T02:31:26;5.72;;;3.13;;
80313;SDS011;69628;47.516;18.828;2023-04-25T02:32:27;4.97;;;3.22;;
80313;SDS011;69628;47.516;18.828;2023-04-25T02:33:27;5.10;;;2.65;;
80313;SDS011;69628;47.516;18.828;2023-04-25T02:34:27;4.40;;;2.80;;
80313;SDS011;69628;47.516;18.828;2023-04-25T02:35:28;4.57;;;2.92;;
80313;SDS011;69628;47.516;18.828;2023-04-25T02:36:28;4.90;;;2.90;;
80313;SDS011;69628;47.516;18.828;2023-04-25T02:37:32;5.22;;;3.20;;
80313;SDS011;69628;47.516;18.828;2023-04-25T02:38:33;4.30;;;3.08;;
80313;SDS011;69628;47.516;18.828;2023-04-25T02:39:33;6.70;;;3.03;;
80313;SDS011;69628;47.516;18.828;2023-04-25T02:40:34;5.15;;;3.05;;
80313;SDS011;69628;47.516;18.828;2023-04-25T02:41:34;4.97;;;3.28;;
80313;SDS011;69628;47.516;18.828;2023-04-25T02:42:35;5.32;;;2.97;;
80313;SDS011;69628;47.516;18.828;2023-04-25T02:43:35;7.05;;;2.80;;
80313;SDS011;69628;47.516;18.828;2023-04-25T02:44:36;6.22;;;3.17;;
80313;SDS011;69628;47.516;18.828;2023-04-25T02:45:36;4.75;;;2.88;;
80313;SDS011;69628;47.516;18.828;2023-04-25T02:46:37;5.13;;;3.17;;
80313;SDS011;69628;47.516;18.828;2023-04-25T02:47:38;4.78;;;3.30;;
80313;SDS011;69628;47.516;18.828;2023-04-25T02:48:38;5.57;;;2.97;;
80313;SDS011;69628;47.516;18.828;2023-04-25T02:49:38;5.30;;;2.90;;
80313;SDS011;69628;47.516;18.828;2023-04-25T02:50:39;4.20;;;2.90;;
80313;SDS011;69628;47.516;18.828;2023-04-25T02:51:39;4.35;;;2.95;;
80313;SDS011;69628;47.516;18.828;2023-04-25T02:52:40;5.00;;;2.90;;
80313;SDS011;69628;47.516;18.828;2023-04-25T02:53:40;4.00;;;3.13;;
80313;SDS011;69628;47.516;18.828;2023-04-25T02:54:40;6.10;;;3.40;;
80313;SDS011;69628;47.516;18.828;2023-04-25T02:55:41;4.40;;;2.90;;
80313;SDS011;69628;47.516;18.828;2023-04-25T02:56:41;5.72;;;3.05;;
80313;SDS011;69628;47.516;18.828;2023-04-25T02:57:41;4.40;;;2.88;;
80313;SDS011;69628;47.516;18.828;2023-04-25T02:58:42;4.05;;;3.03;;
80313;SDS011;69628;47.516;18.828;2023-04-25T02:59:42;4.18;;;2.97;;
80313;SDS011;69628;47.516;18.828;2023-04-25T03:00:43;8.13;;;3.25;;
80313;SDS011;69628;47.516;18.828;2023-04-25T03:01:43;4.80;;;3.15;;
80313;SDS011;69628;47.516;18.828;2023-04-25T03:02:43;7.28;;;3.13;;
80313;SDS011;69628;47.516;18.828;2023-04-25T03:03:44;8.20;;;3.30;;
80313;SDS011;69628;47.516;18.828;2023-04-25T03:04:44;4.78;;;3.20;;
80313;SDS011;69628;47.516;18.828;2023-04-25T03:05:44;5.22;;;3.10;;
80313;SDS011;69628;47.516;18.828;2023-04-25T03:06:46;5.00;;;3.30;;
80313;SDS011;69628;47.516;18.828;2023-04-25T03:07:47;4.28;;;3.03;;
80313;SDS011;69628;47.516;18.828;2023-04-25T03:08:47;4.97;;;3.20;;
80313;SDS011;69628;47.516;18.828;2023-04-25T03:09:47;4.22;;;3.10;;
80313;SDS011;69628;47.516;18.828;2023-04-25T03:10:48;5.45;;;3.38;;
80313;SDS011;69628;47.516;18.828;2023-04-25T03:11:50;3.97;;;3.00;;
80313;SDS011;69628;47.516;18.828;2023-04-25T03:12:50;5.70;;;3.40;;
80313;SDS011;69628;47.516;18.828;2023-04-25T03:13:50;6.03;;;2.80;;
80313;SDS011;69628;47.516;18.828;2023-04-25T03:14:51;4.93;;;3.15;;
80313;SDS011;69628;47.516;18.828;2023-04-25T03:15:51;4.90;;;3.28;;
80313;SDS011;69628;47.516;18.828;2023-04-25T03:16:52;5.32;;;3.45;;
80313;SDS011;69628;47.516;18.828;2023-04-25T03:17:52;4.95;;;3.30;;
80313;SDS011;69628;47.516;18.828;2023-04-25T03:18:52;7.85;;;3.10;;
80313;SDS011;69628;47.516;18.828;2023-04-25T03:19:53;4.75;;;3.20;;
80313;SDS011;69628;47.516;18.828;2023-04-25T03:20:53;6.95;;;3.47;;
80313;SDS011;69628;47.516;18.828;2023-04-25T03:21:53;5.78;;;3.40;;
80313;SDS011;69628;47.516;18.828;2023-04-25T03:22:54;4.47;;;3.33;;
80313;SDS011;69628;47.516;18.828;2023-04-25T03:23:54;5.32;;;3.05;;
80313;SDS011;69628;47.516;18.828;2023-04-25T03:24:55;4.60;;;3.10;;
80313;SDS011;69628;47.516;18.828;2023-04-25T03:25:55;4.35;;;2.97;;
80313;SDS011;69628;47.516;18.828;2023-04-25T03:26:55;5.13;;;3.28;;
80313;SDS011;69628;47.516;18.828;2023-04-25T03:27:56;4.97;;;3.08;;
80313;SDS011;69628;47.516;18.828;2023-04-25T03:28:56;6.53;;;3.35;;
80313;SDS011;69628;47.516;18.828;2023-04-25T03:29:56;5.85;;;3.33;;
80313;SDS011;69628;47.516;18.828;2023-04-25T03:30:57;4.18;;;2.75;;
80313;SDS011;69628;47.516;18.828;2023-04-25T03:31:57;4.28;;;3.30;;
80313;SDS011;69628;47.516;18.828;2023-04-25T03:32:57;6.22;;;3.83;;
80313;SDS011;69628;47.516;18.828;2023-04-25T03:33:58;4.97;;;3.08;;
80313;SDS011;69628;47.516;18.828;2023-04-25T03:34:58;7.72;;;3.20;;
80313;SDS011;69628;47.516;18.828;2023-04-25T03:35:59;4.30;;;3.45;;
80313;SDS011;69628;47.516;18.828;2023-04-25T03:36:59;4.85;;;3.10;;
80313;SDS011;69628;47.516;18.828;2023-04-25T03:38:00;4.70;;;3.22;;
80313;SDS011;69628;47.516;18.828;2023-04-25T03:39:00;6.80;;;3.55;;
80313;SDS011;69628;47.516;18.828;2023-04-25T03:40:00;8.68;;;3.92;;
80313;SDS011;69628;47.516;18.828;2023-04-25T03:41:01;4.90;;;3.65;;
80313;SDS011;69628;47.516;18.828;2023-04-25T03:42:01;6.18;;;3.00;;
80313;SDS011;69628;47.516;18.828;2023-04-25T03:43:02;4.55;;;3.20;;
80313;SDS011;69628;47.516;18.828;2023-04-25T03:44:03;4.43;;;3.05;;
80313;SDS011;69628;47.516;18.828;2023-04-25T03:45:03;6.35;;;3.20;;
80313;SDS011;69628;47.516;18.828;2023-04-25T03:46:04;6.25;;;3.28;;
80313;SDS011;69628;47.516;18.828;2023-04-25T03:47:05;4.07;;;2.95;;
80313;SDS011;69628;47.516;18.828;2023-04-25T03:48:06;5.53;;;3.53;;
80313;SDS011;69628;47.516;18.828;2023-04-25T03:49:06;5.22;;;3.03;;
80313;SDS011;69628;47.516;18.828;2023-04-25T03:50:07;3.97;;;2.92;;
80313;SDS011;69628;47.516;18.828;2023-04-25T03:51:07;5.50;;;3.20;;
80313;SDS011;69628;47.516;18.828;2023-04-25T03:52:08;4.45;;;3.10;;
80313;SDS011;69628;47.516;18.828;2023-04-25T03:53:08;5.90;;;3.30;;
80313;SDS011;69628;47.516;18.828;2023-04-25T03:54:08;5.80;;;3.45;;
80313;SDS011;69628;47.516;18.828;2023-04-25T03:55:09;4.30;;;2.90;;
80313;SDS011;69628;47.516;18.828;2023-04-25T03:56:10;6.03;;;3.20;;
80313;SDS011;69628;47.516;18.828;2023-04-25T03:57:10;7.47;;;3.03;;
80313;SDS011;69628;47.516;18.828;2023-04-25T03:58:10;5.95;;;3.33;;
80313;SDS011;69628;47.516;18.828;2023-04-25T03:59:11;7.60;;;3.40;;
80313;SDS011;69628;47.516;18.828;2023-04-25T04:00:11;9.27;;;3.28;;
80313;SDS011;69628;47.516;18.828;2023-04-25T04:01:13;4.80;;;3.33;;
80313;SDS011;69628;47.516;18.828;2023-04-25T04:02:13;4.78;;;3.50;;
80313;SDS011;69628;47.516;18.828;2023-04-25T04:03:13;7.30;;;3.63;;
80313;SDS011;69628;47.516;18.828;2023-04-25T04:04:14;5.53;;;3.50;;
80313;SDS011;69628;47.516;18.828;2023-04-25T04:05:14;5.13;;;3.70;;
80313;SDS011;69628;47.516;18.828;2023-04-25T04:06:14;5.07;;;3.58;;
80313;SDS011;69628;47.516;18.828;2023-04-25T04:07:15;5.53;;;3.20;;
80313;SDS011;69628;47.516;18.828;2023-04-25T04:08:15;6.28;;;3.42;;
80313;SDS011;69628;47.516;18.828;2023-04-25T04:09:16;5.65;;;3.28;;
80313;SDS011;69628;47.516;18.828;2023-04-25T04:10:16;5.97;;;3.17;;
80313;SDS011;69628;47.516;18.828;2023-04-25T04:11:17;6.63;;;3.60;;
80313;SDS011;69628;47.516;18.828;2023-04-25T04:12:17;4.95;;;3.42;;
80313;SDS011;69628;47.516;18.828;2023-04-25T04:13:17;4.95;;;3.17;;
80313;SDS011;69628;47.516;18.828;2023-04-25T04:14:18;6.97;;;3.50;;
80313;SDS011;69628;47.516;18.828;2023-04-25T04:15:18;6.65;;;3.60;;
80313;SDS011;69628;47.516;18.828;2023-04-25T04:16:18;7.88;;;3.63;;
80313;SDS011;69628;47.516;18.828;2023-04-25T04:17:19;4.57;;;3.25;;
80313;SDS011;69628;47.516;18.828;2023-04-25T04:18:19;7.88;;;3.72;;
80313;SDS011;69628;47.516;18.828;2023-04-25T04:19:20;5.70;;;3.80;;
80313;SDS011;69628;47.516;18.828;2023-04-25T04:20:20;5.05;;;3.10;;
80313;SDS011;69628;47.516;18.828;2023-04-25T04:21:21;6.18;;;3.70;;
80313;SDS011;69628;47.516;18.828;2023-04-25T04:22:21;5.53;;;3.70;;
80313;SDS011;69628;47.516;18.828;2023-04-25T04:23:22;6.93;;;3.47;;
80313;SDS011;69628;47.516;18.828;2023-04-25T04:24:22;5.70;;;3.47;;
80313;SDS011;69628;47.516;18.828;2023-04-25T04:25:23;4.18;;;3.38;;
80313;SDS011;69628;47.516;18.828;2023-04-25T04:26:24;6.35;;;3.60;;
80313;SDS011;69628;47.516;18.828;2023-04-25T04:27:26;6.32;;;3.33;;
80313;SDS011;69628;47.516;18.828;2023-04-25T04:28:26;6.75;;;3.30;;
80313;SDS011;69628;47.516;18.828;2023-04-25T04:29:26;5.57;;;3.20;;
80313;SDS011;69628;47.516;18.828;2023-04-25T04:30:27;4.90;;;3.35;;
80313;SDS011;69628;47.516;18.828;2023-04-25T04:31:30;6.03;;;3.38;;
80313;SDS011;69628;47.516;18.828;2023-04-25T04:32:32;5.50;;;3.30;;
80313;SDS011;69628;47.516;18.828;2023-04-25T04:33:34;4.65;;;3.35;;
80313;SDS011;69628;47.516;18.828;2023-04-25T04:34:35;4.97;;;3.25;;
80313;SDS011;69628;47.516;18.828;2023-04-25T04:35:35;5.10;;;3.55;;
80313;SDS011;69628;47.516;18.828;2023-04-25T04:36:36;8.88;;;3.78;;
80313;SDS011;69628;47.516;18.828;2023-04-25T04:37:36;5.30;;;3.70;;
80313;SDS011;69628;47.516;18.828;2023-04-25T04:38:37;5.32;;;3.58;;
80313;SDS011;69628;47.516;18.828;2023-04-25T04:39:37;6.22;;;3.65;;
80313;SDS011;69628;47.516;18.828;2023-04-25T04:40:38;4.38;;;3.33;;
80313;SDS011;69628;47.516;18.828;2023-04-25T04:41:38;5.15;;;3.38;;
80313;SDS011;69628;47.516;18.828;2023-04-25T04:42:38;6.53;;;3.60;;
80313;SDS011;69628;47.516;18.828;2023-04-25T04:43:39;7.65;;;3.60;;
80313;SDS011;69628;47.516;18.828;2023-04-25T04:44:39;5.78;;;3.67;;
80313;SDS011;69628;47.516;18.828;2023-04-25T04:45:40;4.78;;;3.38;;
80313;SDS011;69628;47.516;18.828;2023-04-25T04:46:40;5.70;;;3.80;;
80313;SDS011;69628;47.516;18.828;2023-04-25T04:47:41;5.55;;;3.60;;
80313;SDS011;69628;47.516;18.828;2023-04-25T04:48:42;5.88;;;3.22;;
80313;SDS011;69628;47.516;18.828;2023-04-25T04:49:44;7.07;;;3.53;;
80313;SDS011;69628;47.516;18.828;2023-04-25T04:50:44;6.70;;;3.40;;
80313;SDS011;69628;47.516;18.828;2023-04-25T04:51:45;5.55;;;3.70;;
80313;SDS011;69628;47.516;18.828;2023-04-25T04:52:46;7.85;;;3.67;;
80313;SDS011;69628;47.516;18.828;2023-04-25T04:53:47;5.32;;;3.53;;
80313;SDS011;69628;47.516;18.828;2023-04-25T04:54:47;5.40;;;3.75;;
80313;SDS011;69628;47.516;18.828;2023-04-25T04:55:48;6.15;;;3.70;;
80313;SDS011;69628;47.516;18.828;2023-04-25T04:56:48;6.53;;;3.90;;
80313;SDS011;69628;47.516;18.828;2023-04-25T04:57:48;6.65;;;3.78;;
80313;SDS011;69628;47.516;18.828;2023-04-25T04:58:49;5.68;;;3.70;;
80313;SDS011;69628;47.516;18.828;2023-04-25T04:59:49;6.05;;;3.97;;
80313;SDS011;69628;47.516;18.828;2023-04-25T05:00:53;5.43;;;3.67;;
80313;SDS011;69628;47.516;18.828;2023-04-25T05:02:14;5.65;;;3.78;;
80313;SDS011;69628;47.516;18.828;2023-04-25T05:03:29;7.30;;;4.00;;
80313;SDS011;69628;47.516;18.828;2023-04-25T05:05:07;6.53;;;3.78;;
80313;SDS011;69628;47.516;18.828;2023-04-25T05:06:10;6.45;;;3.88;;
80313;SDS011;69628;47.516;18.828;2023-04-25T05:07:10;5.55;;;4.05;;
80313;SDS011;69628;47.516;18.828;2023-04-25T05:08:11;9.20;;;4.43;;
80313;SDS011;69628;47.516;18.828;2023-04-25T05:09:12;7.10;;;3.88;;
80313;SDS011;69628;47.516;18.828;2023-04-25T05:10:12;8.43;;;4.35;;
80313;SDS011;69628;47.516;18.828;2023-04-25T05:11:12;5.85;;;3.90;;
80313;SDS011;69628;47.516;18.828;2023-04-25T05:12:13;8.00;;;3.83;;
80313;SDS011;69628;47.516;18.828;2023-04-25T05:13:13;5.95;;;3.80;;
80313;SDS011;69628;47.516;18.828;2023-04-25T05:14:14;7.13;;;4.03;;
80313;SDS011;69628;47.516;18.828;2023-04-25T05:15:14;7.28;;;4.10;;
80313;SDS011;69628;47.516;18.828;2023-04-25T05:16:14;7.47;;;4.40;;
80313;SDS011;69628;47.516;18.828;2023-04-25T05:17:15;7.28;;;3.97;;
80313;SDS011;69628;47.516;18.828;2023-04-25T05:18:15;7.43;;;3.85;;
80313;SDS011;69628;47.516;18.828;2023-04-25T05:19:16;7.45;;;4.13;;
80313;SDS011;69628;47.516;18.828;2023-04-25T05:20:16;9.95;;;3.70;;
80313;SDS011;69628;47.516;18.828;2023-04-25T05:21:18;6.30;;;3.95;;
80313;SDS011;69628;47.516;18.828;2023-04-25T05:22:19;7.82;;;3.65;;
80313;SDS011;69628;47.516;18.828;2023-04-25T05:23:19;5.28;;;3.80;;
80313;SDS011;69628;47.516;18.828;2023-04-25T05:24:20;4.97;;;3.63;;
80313;SDS011;69628;47.516;18.828;2023-04-25T05:25:20;8.15;;;4.50;;
80313;SDS011;69628;47.516;18.828;2023-04-25T05:26:20;6.00;;;4.05;;
80313;SDS011;69628;47.516;18.828;2023-04-25T05:27:21;6.22;;;4.22;;
80313;SDS011;69628;47.516;18.828;2023-04-25T05:28:21;8.90;;;4.50;;
80313;SDS011;69628;47.516;18.828;2023-04-25T05:29:22;5.45;;;4.07;;
80313;SDS011;69628;47.516;18.828;2023-04-25T05:30:22;6.88;;;4.25;;
80313;SDS011;69628;47.516;18.828;2023-04-25T05:31:23;6.45;;;4.18;;
80313;SDS011;69628;47.516;18.828;2023-04-25T05:32:23;7.20;;;4.40;;
80313;SDS011;69628;47.516;18.828;2023-04-25T05:33:24;5.50;;;3.90;;
80313;SDS011;69628;47.516;18.828;2023-04-25T05:34:25;7.35;;;4.25;;
80313;SDS011;69628;47.516;18.828;2023-04-25T05:35:25;5.63;;;3.72;;
80313;SDS011;69628;47.516;18.828;2023-04-25T05:36:26;6.18;;;4.22;;
80313;SDS011;69628;47.516;18.828;2023-04-25T05:37:27;6.70;;;3.90;;
80313;SDS011;69628;47.516;18.828;2023-04-25T05:38:27;5.85;;;3.90;;
80313;SDS011;69628;47.516;18.828;2023-04-25T05:39:28;5.47;;;3.78;;
80313;SDS011;69628;47.516;18.828;2023-04-25T05:40:28;7.30;;;4.30;;
80313;SDS011;69628;47.516;18.828;2023-04-25T05:41:28;7.40;;;4.47;;
80313;SDS011;69628;47.516;18.828;2023-04-25T05:42:29;7.15;;;4.50;;
80313;SDS011;69628;47.516;18.828;2023-04-25T05:43:29;5.22;;;3.95;;
80313;SDS011;69628;47.516;18.828;2023-04-25T05:44:30;8.25;;;4.35;;
80313;SDS011;69628;47.516;18.828;2023-04-25T05:45:31;6.85;;;4.30;;
80313;SDS011;69628;47.516;18.828;2023-04-25T05:46:31;7.18;;;4.40;;
80313;SDS011;69628;47.516;18.828;2023-04-25T05:47:31;5.88;;;4.00;;
80313;SDS011;69628;47.516;18.828;2023-04-25T05:48:32;7.50;;;4.57;;
80313;SDS011;69628;47.516;18.828;2023-04-25T05:49:32;5.95;;;4.25;;
80313;SDS011;69628;47.516;18.828;2023-04-25T05:50:33;6.47;;;4.72;;
80313;SDS011;69628;47.516;18.828;2023-04-25T05:51:33;5.90;;;4.30;;
80313;SDS011;69628;47.516;18.828;2023-04-25T05:52:34;8.18;;;4.55;;
80313;SDS011;69628;47.516;18.828;2023-04-25T05:53:34;6.50;;;3.90;;
80313;SDS011;69628;47.516;18.828;2023-04-25T05:54:35;5.60;;;4.57;;
80313;SDS011;69628;47.516;18.828;2023-04-25T05:55:36;6.28;;;4.07;;
80313;SDS011;69628;47.516;18.828;2023-04-25T05:56:36;5.95;;;4.20;;
80313;SDS011;69628;47.516;18.828;2023-04-25T05:57:37;6.88;;;4.20;;
80313;SDS011;69628;47.516;18.828;2023-04-25T05:58:41;7.85;;;4.90;;
80313;SDS011;69628;47.516;18.828;2023-04-25T05:59:41;7.85;;;4.72;;
80313;SDS011;69628;47.516;18.828;2023-04-25T06:00:41;7.35;;;5.28;;